createdAt,value
2023-05-09T00:02:53.543Z,18.00
2023-05-09T00:05:55.227Z,17.10
2023-05-09T00:08:57.460Z,17.80
2023-05-09T00:15:04.254Z,18.80
2023-05-09T00:18:06.273Z,19.10
2023-05-09T00:21:08.871Z,23.10
2023-05-09T00:24:10.620Z,24.60
2023-05-09T00:27:12.415Z,19.20
2023-05-09T00:33:15.655Z,23.50
2023-05-09T00:39:18.887Z,18.50
2023-05-09T00:42:20.555Z,19.00
2023-05-09T00:45:22.576Z,17.70
2023-05-09T00:51:25.942Z,16.90
2023-05-09T00:57:29.232Z,15.80
2023-05-09T01:03:32.603Z,15.20
2023-05-09T01:06:45.551Z,14.00
2023-05-09T01:09:56.894Z,14.20
2023-05-09T01:13:10.397Z,14.40
2023-05-09T01:16:50.772Z,14.80
2023-05-09T01:19:58.877Z,18.50
2023-05-09T01:23:04.962Z,19.30
2023-05-09T01:26:27.259Z,18.70
2023-05-09T01:29:48.436Z,17.50
2023-05-09T01:32:51.713Z,17.20
2023-05-09T01:36:00.159Z,20.40
2023-05-09T01:39:02.644Z,19.20
2023-05-09T01:42:04.790Z,20.70
2023-05-09T01:45:07.546Z,19.30
2023-05-09T01:48:09.700Z,18.10
2023-05-09T01:51:13.821Z,18.10
2023-05-09T01:54:16.754Z,17.60
2023-05-09T01:57:19.075Z,19.00
2023-05-09T02:00:21.394Z,19.90
2023-05-09T02:03:23.665Z,20.10
2023-05-09T02:06:25.462Z,17.80
2023-05-09T02:09:27.310Z,17.90
2023-05-09T02:12:28.991Z,15.70
2023-05-09T02:15:30.988Z,19.40
2023-05-09T02:18:32.758Z,20.50
2023-05-09T02:24:35.981Z,11.80
2023-05-09T02:30:42.913Z,15.90
2023-05-09T02:33:44.965Z,17.50
2023-05-09T02:36:46.771Z,16.70
2023-05-09T02:39:48.628Z,20.40
2023-05-09T02:42:50.337Z,20.90
2023-05-09T02:48:53.603Z,20.10
2023-05-09T02:51:55.292Z,22.60
2023-05-09T02:54:57.056Z,23.20
2023-05-09T03:01:15.630Z,25.00
2023-05-09T03:07:18.924Z,24.20
2023-05-09T03:10:20.581Z,22.20
2023-05-09T03:13:24.008Z,21.60
2023-05-09T03:16:25.797Z,21.30
2023-05-09T03:19:27.588Z,21.70
2023-05-09T03:25:30.819Z,20.90
2023-05-09T03:28:33.688Z,18.70
2023-05-09T03:34:37.198Z,19.40
2023-05-09T03:37:38.912Z,20.20
2023-05-09T03:40:41.257Z,21.80
2023-05-09T03:43:43.078Z,21.70
2023-05-09T03:46:45.278Z,20.10
2023-05-09T03:52:48.928Z,20.20
2023-05-09T03:58:52.330Z,17.10
2023-05-09T04:01:54.431Z,16.70
2023-05-09T04:04:56.375Z,16.80
2023-05-09T04:07:58.173Z,16.20
2023-05-09T04:11:00.215Z,17.10
2023-05-09T04:14:02.161Z,18.00
2023-05-09T04:20:06.164Z,16.80
2023-05-09T04:23:07.876Z,17.40
2023-05-09T04:26:09.770Z,17.10
2023-05-09T04:29:11.608Z,17.50
2023-05-09T04:32:13.306Z,16.10
2023-05-09T04:35:16.583Z,16.60
2023-05-09T04:38:19.893Z,16.30
2023-05-09T04:44:23.256Z,15.30
2023-05-09T04:47:24.947Z,15.80
2023-05-09T04:50:26.643Z,15.20
2023-05-09T04:53:28.298Z,16.10
2023-05-09T04:56:30.203Z,16.10
2023-05-09T04:59:31.838Z,16.30
2023-05-09T05:02:33.597Z,15.30
2023-05-09T05:05:37.197Z,15.80
2023-05-09T05:08:39.475Z,15.70
2023-05-09T05:11:50.124Z,16.80
2023-05-09T05:14:59.222Z,16.70
2023-05-09T05:18:00.876Z,15.10
2023-05-09T05:21:02.567Z,15.20
2023-05-09T05:24:04.479Z,16.20
2023-05-09T05:27:06.096Z,13.30
2023-05-09T05:30:08.440Z,15.00
2023-05-09T05:33:10.458Z,14.10
2023-05-09T05:36:12.139Z,14.50
2023-05-09T05:39:14.650Z,14.90
2023-05-09T05:42:16.293Z,13.70
2023-05-09T05:45:18.392Z,13.40
2023-05-09T05:48:20.430Z,13.00
2023-05-09T05:51:22.235Z,13.10
2023-05-09T05:54:23.849Z,12.80
2023-05-09T05:57:25.551Z,12.40
2023-05-09T06:00:27.201Z,11.50
2023-05-09T06:03:29.095Z,11.20
2023-05-09T06:06:31.098Z,11.30
2023-05-09T06:09:32.887Z,12.00
2023-05-09T06:12:34.525Z,12.10
2023-05-09T06:15:36.249Z,11.60
2023-05-09T06:18:38.407Z,11.20
2023-05-09T06:21:40.217Z,11.00
2023-05-09T06:24:41.889Z,10.70
2023-05-09T06:27:43.482Z,10.90
2023-05-09T06:30:45.144Z,10.70
2023-05-09T06:33:46.796Z,10.70
2023-05-09T06:36:48.373Z,11.10
2023-05-09T06:39:50.343Z,9.60
2023-05-09T06:42:52.184Z,10.70
2023-05-09T06:45:53.793Z,9.90
2023-05-09T06:48:55.495Z,9.70
2023-05-09T06:51:57.083Z,9.40
2023-05-09T06:54:58.695Z,9.40
2023-05-09T06:58:00.587Z,9.70
2023-05-09T07:01:02.324Z,9.30
2023-05-09T07:04:04.256Z,9.30
2023-05-09T07:07:05.987Z,8.60
2023-05-09T07:10:11.748Z,8.60
2023-05-09T07:13:14.279Z,8.40
2023-05-09T07:16:16.140Z,7.00
2023-05-09T07:19:17.936Z,6.70
2023-05-09T07:22:19.573Z,6.80
2023-05-09T07:25:21.730Z,6.40
2023-05-09T07:28:23.718Z,7.10
2023-05-09T07:31:25.623Z,6.70
2023-05-09T07:34:27.511Z,6.90
2023-05-09T07:37:29.333Z,6.80
2023-05-09T07:40:37.155Z,6.80
2023-05-09T07:43:38.865Z,6.70
2023-05-09T07:46:40.598Z,5.90
2023-05-09T07:49:42.259Z,6.70
2023-05-09T07:52:43.929Z,5.90
2023-05-09T07:55:45.763Z,6.40
2023-05-09T07:58:47.424Z,5.40
2023-05-09T08:01:49.022Z,5.50
2023-05-09T08:04:50.625Z,5.30
2023-05-09T08:07:52.287Z,4.90
2023-05-09T08:10:53.913Z,4.90
2023-05-09T08:13:55.556Z,5.30
2023-05-09T08:16:57.351Z,5.20
2023-05-09T08:19:59.039Z,5.40
2023-05-09T08:23:00.683Z,5.10
2023-05-09T08:26:02.741Z,5.00
2023-05-09T08:29:04.407Z,4.60
2023-05-09T08:32:06.108Z,5.40
2023-05-09T08:35:08.208Z,5.10
2023-05-09T08:38:09.984Z,5.10
2023-05-09T08:41:12.034Z,4.90
2023-05-09T08:44:13.672Z,4.90
2023-05-09T08:47:15.822Z,4.80
2023-05-09T08:50:17.916Z,4.20
2023-05-09T08:53:20.380Z,4.60
2023-05-09T08:56:22.037Z,4.60
2023-05-09T08:59:24.463Z,4.50
2023-05-09T09:02:26.196Z,4.90
2023-05-09T09:08:36.508Z,4.80
2023-05-09T09:11:38.144Z,4.50
2023-05-09T09:14:43.238Z,4.70
2023-05-09T09:17:46.969Z,4.80
2023-05-09T09:20:53.637Z,4.10
2023-05-09T09:23:55.720Z,4.60
2023-05-09T09:26:57.406Z,4.40
2023-05-09T09:30:09.268Z,4.30
2023-05-09T09:33:19.254Z,4.60
2023-05-09T09:36:31.727Z,4.50
2023-05-09T09:39:33.377Z,4.20
2023-05-09T09:42:42.142Z,4.30
2023-05-09T09:45:44.074Z,4.10
2023-05-09T09:48:46.499Z,5.00
2023-05-09T09:51:55.982Z,5.30
2023-05-09T09:54:57.627Z,4.50
2023-05-09T09:57:59.588Z,4.20
2023-05-09T10:01:08.670Z,4.40
2023-05-09T10:04:15.803Z,4.50
2023-05-09T10:07:19.557Z,3.80
2023-05-09T10:10:21.715Z,4.00
2023-05-09T10:13:25.848Z,4.20
2023-05-09T10:16:42.728Z,4.30
2023-05-09T10:19:46.452Z,3.90
2023-05-09T10:22:49.422Z,3.80
2023-05-09T10:26:11.687Z,4.00
2023-05-09T10:29:16.156Z,4.10
2023-05-09T10:32:25.362Z,4.00
2023-05-09T10:35:31.354Z,4.00
2023-05-09T10:38:33.236Z,3.80
2023-05-09T10:41:36.036Z,4.00
2023-05-09T10:44:40.729Z,4.00
2023-05-09T10:47:43.836Z,4.30
2023-05-09T10:50:45.847Z,3.70
2023-05-09T10:53:49.779Z,3.70
2023-05-09T10:56:51.462Z,3.70
2023-05-09T10:59:53.276Z,4.10
2023-05-09T11:03:07.766Z,3.70
2023-05-09T11:06:09.513Z,3.80
2023-05-09T11:09:30.845Z,3.60
2023-05-09T11:12:32.390Z,3.90
2023-05-09T11:15:34.188Z,3.60
2023-05-09T11:18:49.983Z,3.60
2023-05-09T11:22:20.745Z,3.30
2023-05-09T11:25:25.748Z,3.60
2023-05-09T11:28:29.449Z,3.80
2023-05-09T11:31:31.068Z,3.60
2023-05-09T11:34:33.916Z,3.50
2023-05-09T11:37:50.415Z,3.70
2023-05-09T11:40:51.983Z,3.40
2023-05-09T11:43:55.096Z,3.80
2023-05-09T11:46:58.433Z,3.70
2023-05-09T11:50:00.168Z,3.70
2023-05-09T11:53:01.792Z,3.50
2023-05-09T11:56:04.339Z,3.70
2023-05-09T11:59:07.214Z,3.40
2023-05-09T12:02:08.826Z,3.70
2023-05-09T12:05:12.416Z,3.40
2023-05-09T12:08:14.182Z,3.40
2023-05-09T12:11:15.963Z,3.80
2023-05-09T12:14:28.134Z,3.40
2023-05-09T12:17:29.846Z,3.70
2023-05-09T12:20:50.258Z,3.50
2023-05-09T12:23:56.050Z,4.00
2023-05-09T12:26:59.338Z,3.70
2023-05-09T12:30:01.123Z,3.80
2023-05-09T12:33:02.858Z,3.40
2023-05-09T12:36:13.787Z,3.70
2023-05-09T12:39:15.405Z,3.60
2023-05-09T12:42:17.000Z,3.60
2023-05-09T12:45:19.922Z,3.80
2023-05-09T12:48:22.790Z,3.50
2023-05-09T12:51:24.412Z,3.70
2023-05-09T12:54:28.037Z,3.80
2023-05-09T12:57:31.570Z,3.90
2023-05-09T13:00:46.126Z,3.60
2023-05-09T13:04:01.828Z,3.20
2023-05-09T13:07:09.097Z,3.90
2023-05-09T13:10:15.022Z,4.10
2023-05-09T13:13:16.962Z,3.90
2023-05-09T13:16:18.782Z,3.90
2023-05-09T13:19:20.488Z,3.80
2023-05-09T13:22:22.024Z,3.60
2023-05-09T13:25:23.608Z,3.80
2023-05-09T13:28:25.637Z,3.70
2023-05-09T13:31:27.210Z,3.90
2023-05-09T13:34:28.796Z,3.30
2023-05-09T13:37:30.440Z,3.60
2023-05-09T13:40:32.005Z,3.50
2023-05-09T13:43:34.221Z,3.50
2023-05-09T13:46:35.853Z,3.70
2023-05-09T13:49:37.811Z,4.00
2023-05-09T13:52:39.338Z,3.60
2023-05-09T13:55:41.058Z,3.50
2023-05-09T13:58:42.748Z,3.70
2023-05-09T14:01:44.686Z,3.80
2023-05-09T14:04:46.625Z,3.80
2023-05-09T14:07:48.299Z,3.70
2023-05-09T14:10:49.878Z,3.70
2023-05-09T14:13:54.316Z,3.50
2023-05-09T14:16:55.885Z,3.50
2023-05-09T14:19:57.551Z,3.30
2023-05-09T14:22:59.101Z,3.80
2023-05-09T14:26:00.758Z,3.70
2023-05-09T14:29:05.913Z,3.60
2023-05-09T14:32:07.483Z,3.60
2023-05-09T14:35:09.520Z,3.50
2023-05-09T14:38:11.136Z,3.40
2023-05-09T14:41:15.596Z,3.70
2023-05-09T14:44:17.165Z,4.10
2023-05-09T14:47:19.086Z,4.00
2023-05-09T14:50:21.239Z,4.00
2023-05-09T14:53:23.812Z,3.50
2023-05-09T14:56:25.355Z,3.80
2023-05-09T14:59:27.150Z,4.10
2023-05-09T15:02:28.842Z,3.80
2023-05-09T15:05:30.467Z,3.90
2023-05-09T15:08:31.982Z,4.20
2023-05-09T15:11:43.741Z,4.10
2023-05-09T15:14:49.015Z,3.70
2023-05-09T15:17:51.594Z,3.80
2023-05-09T15:20:53.206Z,3.50
2023-05-09T15:23:54.892Z,3.80
2023-05-09T15:26:56.396Z,4.00
2023-05-09T15:29:58.020Z,3.90
2023-05-09T15:32:59.608Z,3.80
2023-05-09T15:36:01.557Z,4.10
2023-05-09T15:39:03.625Z,4.20
2023-05-09T15:42:05.197Z,3.80
2023-05-09T15:45:08.476Z,4.00
2023-05-09T15:48:10.145Z,4.10
2023-05-09T15:51:11.962Z,4.00
2023-05-09T15:54:13.577Z,4.00
2023-05-09T15:57:15.668Z,3.60
2023-05-09T16:00:17.705Z,4.20
2023-05-09T16:03:19.881Z,3.80
2023-05-09T16:06:21.492Z,4.20
2023-05-09T16:09:23.166Z,4.90
2023-05-09T16:12:24.960Z,4.60
2023-05-09T16:15:26.514Z,4.70
2023-05-09T16:18:28.155Z,4.10
2023-05-09T16:21:29.863Z,4.20
2023-05-09T16:24:31.839Z,4.60
2023-05-09T16:27:33.659Z,4.40
2023-05-09T16:30:36.308Z,4.10
2023-05-09T16:33:37.863Z,4.90
2023-05-09T16:36:39.601Z,4.80
2023-05-09T16:39:41.167Z,6.80
2023-05-09T16:42:42.980Z,11.70
2023-05-09T16:45:44.665Z,16.40
2023-05-09T16:48:46.262Z,19.00
2023-05-09T16:51:47.821Z,4.90
2023-05-09T16:54:49.635Z,5.00
2023-05-09T16:57:51.318Z,11.30
2023-05-09T17:00:52.926Z,18.10
2023-05-09T17:03:55.205Z,16.90
2023-05-09T17:06:56.818Z,12.10
2023-05-09T17:09:58.472Z,13.70
2023-05-09T17:13:00.139Z,33.50
2023-05-09T17:16:01.888Z,41.30
2023-05-09T17:19:03.617Z,40.00
2023-05-09T17:22:05.280Z,25.40
2023-05-09T17:25:07.121Z,20.90
2023-05-09T17:28:08.748Z,30.10
2023-05-09T17:31:10.275Z,30.50
2023-05-09T17:34:11.913Z,14.60
2023-05-09T17:37:13.577Z,16.70
2023-05-09T17:40:15.333Z,14.40
2023-05-09T17:43:17.258Z,10.80
2023-05-09T17:46:19.162Z,9.80
2023-05-09T17:49:20.687Z,9.00
2023-05-09T17:52:22.336Z,8.20
2023-05-09T17:55:24.182Z,6.10
2023-05-09T17:58:26.005Z,5.80
2023-05-09T18:01:27.643Z,4.90
2023-05-09T18:04:29.169Z,30.20
2023-05-09T18:07:31.877Z,7.30
2023-05-09T18:10:33.671Z,10.70
2023-05-09T18:13:35.465Z,8.20
2023-05-09T18:16:37.176Z,12.40
2023-05-09T18:19:39.028Z,10.20
2023-05-09T18:22:40.646Z,7.60
2023-05-09T18:25:42.271Z,8.30
2023-05-09T18:28:43.888Z,9.90
2023-05-09T18:31:45.748Z,14.10
2023-05-09T18:34:47.316Z,9.90
2023-05-09T18:37:48.907Z,9.00
2023-05-09T18:40:50.524Z,9.00
2023-05-09T18:43:53.006Z,9.10
2023-05-09T18:46:54.760Z,10.10
2023-05-09T18:49:56.381Z,15.50
2023-05-09T18:52:58.480Z,31.30
2023-05-09T18:56:00.155Z,28.70
2023-05-09T18:59:01.690Z,20.70
2023-05-09T19:02:03.444Z,23.90
2023-05-09T19:05:08.701Z,20.90
2023-05-09T19:08:10.284Z,23.90
2023-05-09T19:14:13.511Z,19.00
2023-05-09T19:17:15.002Z,15.70
2023-05-09T19:23:18.678Z,13.50
2023-05-09T19:29:21.753Z,53.50
2023-05-09T19:35:25.414Z,35.70
2023-05-09T19:38:27.296Z,28.40
2023-05-09T19:41:29.638Z,23.50
2023-05-09T19:44:31.848Z,17.90
2023-05-09T19:47:34.143Z,11.70
2023-05-09T19:50:35.796Z,10.10
2023-05-09T19:53:37.798Z,11.40
2023-05-09T19:56:39.385Z,10.80
2023-05-09T19:59:41.017Z,11.40
2023-05-09T20:09:03.587Z,18.00
2023-05-09T20:15:07.662Z,10.20
2023-05-09T20:18:09.331Z,10.10
2023-05-09T20:21:11.179Z,9.70
2023-05-09T20:24:12.897Z,10.40
2023-05-09T20:27:14.427Z,9.30
2023-05-09T20:33:17.949Z,9.90
2023-05-09T20:39:21.688Z,10.00
2023-05-09T20:42:23.318Z,10.10
2023-05-09T20:48:26.524Z,9.00
2023-05-09T20:51:28.002Z,9.20
2023-05-09T20:57:30.987Z,9.00
2023-05-09T21:03:34.323Z,8.10
2023-05-09T21:06:36.523Z,7.50
2023-05-09T21:09:38.109Z,8.60
2023-05-09T21:12:39.591Z,9.40
2023-05-09T21:15:41.431Z,9.30
2023-05-09T21:18:43.054Z,9.60
2023-05-09T21:24:46.051Z,9.60
2023-05-09T21:27:47.606Z,9.10
2023-05-09T21:33:58.716Z,8.30
2023-05-09T21:37:00.344Z,8.50
2023-05-09T21:43:05.842Z,8.10
2023-05-09T21:46:07.577Z,8.10
2023-05-09T21:49:09.156Z,8.00
2023-05-09T21:52:10.649Z,8.10
2023-05-09T21:58:13.800Z,7.30
2023-05-09T22:04:17.567Z,7.00
2023-05-09T22:10:20.534Z,7.40
2023-05-09T22:13:23.270Z,7.80
2023-05-09T22:16:25.047Z,7.60
2023-05-09T22:19:26.666Z,7.20
2023-05-09T22:25:29.565Z,7.30
2023-05-09T22:28:31.072Z,8.30
2023-05-09T22:31:32.981Z,8.10
2023-05-09T22:37:36.722Z,7.90
2023-05-09T22:40:38.579Z,8.00
2023-05-09T22:43:40.111Z,7.70
2023-05-09T22:49:44.574Z,7.90
2023-05-09T22:52:47.425Z,8.30
2023-05-09T22:58:50.528Z,8.60
2023-05-09T23:04:53.635Z,8.50
2023-05-09T23:10:56.900Z,8.50
2023-05-09T23:13:58.558Z,8.10
2023-05-09T23:20:01.801Z,7.50
2023-05-09T23:26:04.958Z,7.40
2023-05-09T23:32:08.011Z,7.00
2023-05-09T23:35:10.251Z,7.40
2023-05-09T23:38:11.906Z,7.90
2023-05-09T23:44:15.048Z,7.30
2023-05-09T23:47:17.079Z,7.30
2023-05-09T23:53:20.923Z,7.00
2023-05-09T23:56:22.522Z,7.50
2023-05-09T23:59:24.093Z,8.30
